sensor_id;sensor_type;location;lat;lon;timestamp;P1;P2;P0
42510;PMS7003;28141;51.120;17.114;2023-05-19T00:01:24;8;2;1
42510;PMS7003;28141;51.120;17.114;2023-05-19T00:04:40;8;1;1
42510;PMS7003;28141;51.120;17.114;2023-05-19T00:07:54;7;1;0
42510;PMS7003;28141;51.120;17.114;2023-05-19T00:11:13;8;1;0
42510;PMS7003;28141;51.120;17.114;2023-05-19T00:14:54;8;1;0
42510;PMS7003;28141;51.120;17.114;2023-05-19T00:18:08;8;1;1
42510;PMS7003;28141;51.120;17.114;2023-05-19T00:21:26;7;1;1
42510;PMS7003;28141;51.120;17.114;2023-05-19T00:24:40;7;1;0
42510;PMS7003;28141;51.120;17.114;2023-05-19T00:28:21;8;1;1
42510;PMS7003;28141;51.120;17.114;2023-05-19T00:31:35;9;2;1
42510;PMS7003;28141;51.120;17.114;2023-05-19T00:34:49;8;2;1
42510;PMS7003;28141;51.120;17.114;2023-05-19T00:38:03;8;2;0
42510;PMS7003;28141;51.120;17.114;2023-05-19T00:41:43;8;1;0
42510;PMS7003;28141;51.120;17.114;2023-05-19T00:44:57;7;1;0
42510;PMS7003;28141;51.120;17.114;2023-05-19T00:48:12;9;2;1
42510;PMS7003;28141;51.120;17.114;2023-05-19T00:51:26;9;2;1
42510;PMS7003;28141;51.120;17.114;2023-05-19T00:55:08;8;1;1
42510;PMS7003;28141;51.120;17.114;2023-05-19T00:58:24;8;1;1
42510;PMS7003;28141;51.120;17.114;2023-05-19T01:01:42;8;1;1
42510;PMS7003;28141;51.120;17.114;2023-05-19T01:05:01;9;2;1
42510;PMS7003;28141;51.120;17.114;2023-05-19T01:08:41;7;1;0
42510;PMS7003;28141;51.120;17.114;2023-05-19T01:11:55;7;0;0
42510;PMS7003;28141;51.120;17.114;2023-05-19T01:15:10;10;2;1
42510;PMS7003;28141;51.120;17.114;2023-05-19T01:22:26;7;1;0
42510;PMS7003;28141;51.120;17.114;2023-05-19T01:25:52;8;1;0
42510;PMS7003;28141;51.120;17.114;2023-05-19T01:29:16;8;2;1
42510;PMS7003;28141;51.120;17.114;2023-05-19T01:33:03;8;1;1
42510;PMS7003;28141;51.120;17.114;2023-05-19T01:36:22;8;1;1
42510;PMS7003;28141;51.120;17.114;2023-05-19T01:39:39;8;1;1
42510;PMS7003;28141;51.120;17.114;2023-05-19T01:42:56;7;1;1
42510;PMS7003;28141;51.120;17.114;2023-05-19T01:46:37;9;2;1
42510;PMS7003;28141;51.120;17.114;2023-05-19T01:49:52;8;1;1
42510;PMS7003;28141;51.120;17.114;2023-05-19T01:53:06;8;1;0
42510;PMS7003;28141;51.120;17.114;2023-05-19T01:56:23;7;1;0
42510;PMS7003;28141;51.120;17.114;2023-05-19T02:00:13;8;1;1
42510;PMS7003;28141;51.120;17.114;2023-05-19T02:03:41;8;1;0
42510;PMS7003;28141;51.120;17.114;2023-05-19T02:10:57;10;2;1
42510;PMS7003;28141;51.120;17.114;2023-05-19T02:17:41;8;1;0
42510;PMS7003;28141;51.120;17.114;2023-05-19T02:21:29;8;1;1
42510;PMS7003;28141;51.120;17.114;2023-05-19T02:24:43;9;1;0
42510;PMS7003;28141;51.120;17.114;2023-05-19T02:27:59;8;2;1
42510;PMS7003;28141;51.120;17.114;2023-05-19T02:31:13;9;2;1
42510;PMS7003;28141;51.120;17.114;2023-05-19T02:34:53;8;1;1
42510;PMS7003;28141;51.120;17.114;2023-05-19T02:38:08;8;2;0
42510;PMS7003;28141;51.120;17.114;2023-05-19T02:41:22;8;1;0
42510;PMS7003;28141;51.120;17.114;2023-05-19T02:44:36;8;1;1
42510;PMS7003;28141;51.120;17.114;2023-05-19T02:48:17;8;2;1
42510;PMS7003;28141;51.120;17.114;2023-05-19T02:51:30;8;1;1
42510;PMS7003;28141;51.120;17.114;2023-05-19T02:54:44;9;2;1
42510;PMS7003;28141;51.120;17.114;2023-05-19T02:57:58;8;2;1
42510;PMS7003;28141;51.120;17.114;2023-05-19T03:01:38;9;1;1
42510;PMS7003;28141;51.120;17.114;2023-05-19T03:04:52;9;1;0
42510;PMS7003;28141;51.120;17.114;2023-05-19T03:08:07;9;2;1
42510;PMS7003;28141;51.120;17.114;2023-05-19T03:11:21;8;2;0
42510;PMS7003;28141;51.120;17.114;2023-05-19T03:15:03;8;1;1
42510;PMS7003;28141;51.120;17.114;2023-05-19T03:18:18;7;1;1
42510;PMS7003;28141;51.120;17.114;2023-05-19T03:21:33;12;3;1
42510;PMS7003;28141;51.120;17.114;2023-05-19T03:24:47;8;1;1
42510;PMS7003;28141;51.120;17.114;2023-05-19T03:28:31;8;1;1
42510;PMS7003;28141;51.120;17.114;2023-05-19T03:31:45;8;1;1
42510;PMS7003;28141;51.120;17.114;2023-05-19T03:34:59;8;1;1
42510;PMS7003;28141;51.120;17.114;2023-05-19T03:38:13;9;2;1
42510;PMS7003;28141;51.120;17.114;2023-05-19T03:41:54;10;2;1
42510;PMS7003;28141;51.120;17.114;2023-05-19T03:45:08;10;3;2
42510;PMS7003;28141;51.120;17.114;2023-05-19T03:48:23;11;4;3
42510;PMS7003;28141;51.120;17.114;2023-05-19T03:51:38;11;3;2
42510;PMS7003;28141;51.120;17.114;2023-05-19T03:55:19;11;4;3
42510;PMS7003;28141;51.120;17.114;2023-05-19T03:58:33;11;3;2
42510;PMS7003;28141;51.120;17.114;2023-05-19T04:01:51;10;3;2
42510;PMS7003;28141;51.120;17.114;2023-05-19T04:05:05;10;3;2
42510;PMS7003;28141;51.120;17.114;2023-05-19T04:08:48;11;4;2
42510;PMS7003;28141;51.120;17.114;2023-05-19T04:12:02;12;4;3
42510;PMS7003;28141;51.120;17.114;2023-05-19T04:15:16;12;5;3
42510;PMS7003;28141;51.120;17.114;2023-05-19T04:18:30;12;5;3
42510;PMS7003;28141;51.120;17.114;2023-05-19T04:22:10;12;4;3
42510;PMS7003;28141;51.120;17.114;2023-05-19T04:25:24;13;5;3
42510;PMS7003;28141;51.120;17.114;2023-05-19T04:28:40;14;7;5
42510;PMS7003;28141;51.120;17.114;2023-05-19T04:31:56;14;7;5
42510;PMS7003;28141;51.120;17.114;2023-05-19T04:35:36;14;6;5
42510;PMS7003;28141;51.120;17.114;2023-05-19T04:38:52;14;7;4
42510;PMS7003;28141;51.120;17.114;2023-05-19T04:42:12;13;6;5
42510;PMS7003;28141;51.120;17.114;2023-05-19T04:45:26;13;6;4
42510;PMS7003;28141;51.120;17.114;2023-05-19T04:49:06;13;5;4
42510;PMS7003;28141;51.120;17.114;2023-05-19T04:52:20;14;5;4
42510;PMS7003;28141;51.120;17.114;2023-05-19T04:55:36;14;6;4
42510;PMS7003;28141;51.120;17.114;2023-05-19T04:58:51;13;6;4
42510;PMS7003;28141;51.120;17.114;2023-05-19T05:02:32;12;5;3
42510;PMS7003;28141;51.120;17.114;2023-05-19T05:05:46;11;4;4
42510;PMS7003;28141;51.120;17.114;2023-05-19T05:09:00;12;5;4
42510;PMS7003;28141;51.120;17.114;2023-05-19T05:12:16;13;6;4
42510;PMS7003;28141;51.120;17.114;2023-05-19T05:15:57;12;5;3
42510;PMS7003;28141;51.120;17.114;2023-05-19T05:19:12;13;5;3
42510;PMS7003;28141;51.120;17.114;2023-05-19T05:22:27;12;4;3
42510;PMS7003;28141;51.120;17.114;2023-05-19T05:25:42;11;4;3
42510;PMS7003;28141;51.120;17.114;2023-05-19T05:28:57;10;4;2
42510;PMS7003;28141;51.120;17.114;2023-05-19T05:32:37;10;2;2
42510;PMS7003;28141;51.120;17.114;2023-05-19T05:35:51;10;3;2
42510;PMS7003;28141;51.120;17.114;2023-05-19T05:39:05;9;3;2
42510;PMS7003;28141;51.120;17.114;2023-05-19T05:42:19;11;3;2
42510;PMS7003;28141;51.120;17.114;2023-05-19T05:45:59;10;4;2
42510;PMS7003;28141;51.120;17.114;2023-05-19T05:49:14;10;3;2
42510;PMS7003;28141;51.120;17.114;2023-05-19T05:52:28;9;3;2
42510;PMS7003;28141;51.120;17.114;2023-05-19T05:55:43;11;3;2
42510;PMS7003;28141;51.120;17.114;2023-05-19T05:59:24;10;3;2
42510;PMS7003;28141;51.120;17.114;2023-05-19T06:02:47;11;4;3
42510;PMS7003;28141;51.120;17.114;2023-05-19T06:06:03;9;3;1
42510;PMS7003;28141;51.120;17.114;2023-05-19T06:11:23;11;4;2
42510;PMS7003;28141;51.120;17.114;2023-05-19T06:14:38;10;3;2
42510;PMS7003;28141;51.120;17.114;2023-05-19T06:17:52;9;3;2
42510;PMS7003;28141;51.120;17.114;2023-05-19T06:21:06;10;3;1
42510;PMS7003;28141;51.120;17.114;2023-05-19T06:24:51;11;4;2
42510;PMS7003;28141;51.120;17.114;2023-05-19T06:28:05;12;4;2
42510;PMS7003;28141;51.120;17.114;2023-05-19T06:31:19;8;2;1
42510;PMS7003;28141;51.120;17.114;2023-05-19T06:34:34;11;4;2
42510;PMS7003;28141;51.120;17.114;2023-05-19T06:38:16;11;3;2
42510;PMS7003;28141;51.120;17.114;2023-05-19T06:41:30;11;3;2
42510;PMS7003;28141;51.120;17.114;2023-05-19T06:44:44;8;2;1
42510;PMS7003;28141;51.120;17.114;2023-05-19T06:47:58;11;3;1
42510;PMS7003;28141;51.120;17.114;2023-05-19T06:51:39;10;4;3
42510;PMS7003;28141;51.120;17.114;2023-05-19T06:54:53;10;3;2
42510;PMS7003;28141;51.120;17.114;2023-05-19T06:58:07;11;4;3
42510;PMS7003;28141;51.120;17.114;2023-05-19T07:01:21;9;3;2
42510;PMS7003;28141;51.120;17.114;2023-05-19T07:05:01;8;2;1
42510;PMS7003;28141;51.120;17.114;2023-05-19T07:08:15;9;2;1
42510;PMS7003;28141;51.120;17.114;2023-05-19T07:11:29;9;3;2
42510;PMS7003;28141;51.120;17.114;2023-05-19T07:14:43;10;2;1
42510;PMS7003;28141;51.120;17.114;2023-05-19T07:18:23;10;3;2
42510;PMS7003;28141;51.120;17.114;2023-05-19T07:21:37;9;2;1
42510;PMS7003;28141;51.120;17.114;2023-05-19T07:24:51;9;2;1
42510;PMS7003;28141;51.120;17.114;2023-05-19T07:28:05;9;3;1
42510;PMS7003;28141;51.120;17.114;2023-05-19T07:31:45;9;3;1
42510;PMS7003;28141;51.120;17.114;2023-05-19T07:34:59;9;2;1
42510;PMS7003;28141;51.120;17.114;2023-05-19T07:38:13;9;2;1
42510;PMS7003;28141;51.120;17.114;2023-05-19T07:41:27;9;2;1
42510;PMS7003;28141;51.120;17.114;2023-05-19T07:44:41;8;2;1
42510;PMS7003;28141;51.120;17.114;2023-05-19T07:48:22;10;3;1
42510;PMS7003;28141;51.120;17.114;2023-05-19T07:51:37;9;2;1
42510;PMS7003;28141;51.120;17.114;2023-05-19T07:54:54;10;2;1
42510;PMS7003;28141;51.120;17.114;2023-05-19T07:58:07;9;2;1
42510;PMS7003;28141;51.120;17.114;2023-05-19T08:01:48;9;2;0
42510;PMS7003;28141;51.120;17.114;2023-05-19T08:05:02;9;2;2
42510;PMS7003;28141;51.120;17.114;2023-05-19T08:08:17;9;2;1
42510;PMS7003;28141;51.120;17.114;2023-05-19T08:11:34;10;2;0
42510;PMS7003;28141;51.120;17.114;2023-05-19T08:15:15;9;1;1
42510;PMS7003;28141;51.120;17.114;2023-05-19T08:18:29;8;1;1
42510;PMS7003;28141;51.120;17.114;2023-05-19T08:21:43;9;2;2
42510;PMS7003;28141;51.120;17.114;2023-05-19T08:24:57;9;2;1
42510;PMS7003;28141;51.120;17.114;2023-05-19T08:28:37;9;2;1
42510;PMS7003;28141;51.120;17.114;2023-05-19T08:31:51;10;2;1
42510;PMS7003;28141;51.120;17.114;2023-05-19T08:35:06;8;1;1
42510;PMS7003;28141;51.120;17.114;2023-05-19T08:38:21;8;1;1
42510;PMS7003;28141;51.120;17.114;2023-05-19T08:42:01;9;2;1
42510;PMS7003;28141;51.120;17.114;2023-05-19T08:45:15;7;1;0
42510;PMS7003;28141;51.120;17.114;2023-05-19T08:48:29;8;1;1
42510;PMS7003;28141;51.120;17.114;2023-05-19T08:59:05;8;1;1
42510;PMS7003;28141;51.120;17.114;2023-05-19T09:02:20;10;2;1
42510;PMS7003;28141;51.120;17.114;2023-05-19T09:05:36;8;2;1
42510;PMS7003;28141;51.120;17.114;2023-05-19T09:08:51;8;1;1
42510;PMS7003;28141;51.120;17.114;2023-05-19T09:12:32;8;2;1
42510;PMS7003;28141;51.120;17.114;2023-05-19T09:15:46;8;2;1
42510;PMS7003;28141;51.120;17.114;2023-05-19T09:19:03;8;2;1
42510;PMS7003;28141;51.120;17.114;2023-05-19T09:22:17;9;1;0
42510;PMS7003;28141;51.120;17.114;2023-05-19T09:26:00;8;1;0
42510;PMS7003;28141;51.120;17.114;2023-05-19T09:29:19;8;2;1
42510;PMS7003;28141;51.120;17.114;2023-05-19T09:32:33;11;2;0
42510;PMS7003;28141;51.120;17.114;2023-05-19T09:35:49;10;3;1
42510;PMS7003;28141;51.120;17.114;2023-05-19T09:39:30;7;1;0
42510;PMS7003;28141;51.120;17.114;2023-05-19T09:42:45;9;2;1
42510;PMS7003;28141;51.120;17.114;2023-05-19T09:49:23;11;2;1
42510;PMS7003;28141;51.120;17.114;2023-05-19T09:53:08;9;2;2
42510;PMS7003;28141;51.120;17.114;2023-05-19T09:56:30;12;4;1
42510;PMS7003;28141;51.120;17.114;2023-05-19T09:59:46;10;4;2
42510;PMS7003;28141;51.120;17.114;2023-05-19T10:03:00;8;2;1
42510;PMS7003;28141;51.120;17.114;2023-05-19T10:06:44;10;3;2
42510;PMS7003;28141;51.120;17.114;2023-05-19T10:09:58;10;2;1
42510;PMS7003;28141;51.120;17.114;2023-05-19T10:13:14;11;3;2
42510;PMS7003;28141;51.120;17.114;2023-05-19T10:16:28;9;2;1
42510;PMS7003;28141;51.120;17.114;2023-05-19T10:20:10;10;3;1
42510;PMS7003;28141;51.120;17.114;2023-05-19T10:23:26;11;3;3
42510;PMS7003;28141;51.120;17.114;2023-05-19T10:26:42;10;3;2
42510;PMS7003;28141;51.120;17.114;2023-05-19T10:30:03;11;3;2
42510;PMS7003;28141;51.120;17.114;2023-05-19T10:37:27;12;3;2
42510;PMS7003;28141;51.120;17.114;2023-05-19T10:48:04;9;2;2
42510;PMS7003;28141;51.120;17.114;2023-05-19T10:55:12;9;2;2
42510;PMS7003;28141;51.120;17.114;2023-05-19T11:01:51;10;4;2
42510;PMS7003;28141;51.120;17.114;2023-05-19T11:05:34;11;4;2
42510;PMS7003;28141;51.120;17.114;2023-05-19T11:08:52;10;3;2
42510;PMS7003;28141;51.120;17.114;2023-05-19T11:12:21;13;4;2
42510;PMS7003;28141;51.120;17.114;2023-05-19T11:16:11;10;3;2
42510;PMS7003;28141;51.120;17.114;2023-05-19T11:19:25;10;4;2
42510;PMS7003;28141;51.120;17.114;2023-05-19T11:22:40;11;4;2
42510;PMS7003;28141;51.120;17.114;2023-05-19T11:25:54;12;5;3
42510;PMS7003;28141;51.120;17.114;2023-05-19T11:29:34;11;4;3
42510;PMS7003;28141;51.120;17.114;2023-05-19T11:32:50;10;4;3
42510;PMS7003;28141;51.120;17.114;2023-05-19T11:36:06;11;4;2
42510;PMS7003;28141;51.120;17.114;2023-05-19T11:39:21;13;5;3
42510;PMS7003;28141;51.120;17.114;2023-05-19T11:43:01;12;4;3
42510;PMS7003;28141;51.120;17.114;2023-05-19T11:46:15;11;4;3
42510;PMS7003;28141;51.120;17.114;2023-05-19T11:49:30;11;4;3
42510;PMS7003;28141;51.120;17.114;2023-05-19T11:52:44;11;4;3
42510;PMS7003;28141;51.120;17.114;2023-05-19T11:56:26;11;4;3
42510;PMS7003;28141;51.120;17.114;2023-05-19T11:59:40;11;4;2
42510;PMS7003;28141;51.120;17.114;2023-05-19T12:02:59;12;5;4
42510;PMS7003;28141;51.120;17.114;2023-05-19T12:06:13;11;4;3
42510;PMS7003;28141;51.120;17.114;2023-05-19T12:09:55;12;5;3
42510;PMS7003;28141;51.120;17.114;2023-05-19T12:13:12;13;5;3
42510;PMS7003;28141;51.120;17.114;2023-05-19T12:19:47;11;4;3
42510;PMS7003;28141;51.120;17.114;2023-05-19T12:23:28;12;5;4
42510;PMS7003;28141;51.120;17.114;2023-05-19T12:26:43;10;4;2
42510;PMS7003;28141;51.120;17.114;2023-05-19T12:29:57;12;5;3
42510;PMS7003;28141;51.120;17.114;2023-05-19T12:33:13;14;5;4
42510;PMS7003;28141;51.120;17.114;2023-05-19T12:36:54;13;6;4
42510;PMS7003;28141;51.120;17.114;2023-05-19T12:40:13;15;6;4
42510;PMS7003;28141;51.120;17.114;2023-05-19T12:43:28;13;6;4
42510;PMS7003;28141;51.120;17.114;2023-05-19T12:46:43;13;7;5
42510;PMS7003;28141;51.120;17.114;2023-05-19T12:50:28;13;5;4
42510;PMS7003;28141;51.120;17.114;2023-05-19T12:53:42;12;5;4
42510;PMS7003;28141;51.120;17.114;2023-05-19T12:56:56;14;7;4
42510;PMS7003;28141;51.120;17.114;2023-05-19T13:00:14;15;7;5
42510;PMS7003;28141;51.120;17.114;2023-05-19T13:03:58;14;7;4
42510;PMS7003;28141;51.120;17.114;2023-05-19T13:07:13;15;8;5
42510;PMS7003;28141;51.120;17.114;2023-05-19T13:10:27;15;7;5
42510;PMS7003;28141;51.120;17.114;2023-05-19T13:13:43;14;7;5
42510;PMS7003;28141;51.120;17.114;2023-05-19T13:17:23;15;8;5
42510;PMS7003;28141;51.120;17.114;2023-05-19T13:20:37;17;9;5
42510;PMS7003;28141;51.120;17.114;2023-05-19T13:23:52;16;9;6
42510;PMS7003;28141;51.120;17.114;2023-05-19T13:27:06;16;9;6
42510;PMS7003;28141;51.120;17.114;2023-05-19T13:30:46;16;9;6
42510;PMS7003;28141;51.120;17.114;2023-05-19T13:34:03;18;10;7
42510;PMS7003;28141;51.120;17.114;2023-05-19T13:37:16;15;8;6
42510;PMS7003;28141;51.120;17.114;2023-05-19T13:40:30;16;9;6
42510;PMS7003;28141;51.120;17.114;2023-05-19T13:44:14;16;9;5
42510;PMS7003;28141;51.120;17.114;2023-05-19T13:47:29;17;10;6
42510;PMS7003;28141;51.120;17.114;2023-05-19T13:50:43;16;8;6
42510;PMS7003;28141;51.120;17.114;2023-05-19T13:53:57;15;8;6
42510;PMS7003;28141;51.120;17.114;2023-05-19T13:57:37;18;9;6
42510;PMS7003;28141;51.120;17.114;2023-05-19T14:00:51;16;10;7
42510;PMS7003;28141;51.120;17.114;2023-05-19T14:04:08;18;10;8
42510;PMS7003;28141;51.120;17.114;2023-05-19T14:07:22;16;10;7
42510;PMS7003;28141;51.120;17.114;2023-05-19T14:11:04;16;9;7
42510;PMS7003;28141;51.120;17.114;2023-05-19T14:14:18;16;9;7
42510;PMS7003;28141;51.120;17.114;2023-05-19T14:17:32;17;10;7
42510;PMS7003;28141;51.120;17.114;2023-05-19T14:20:45;17;10;7
42510;PMS7003;28141;51.120;17.114;2023-05-19T14:24:25;19;11;7
42510;PMS7003;28141;51.120;17.114;2023-05-19T14:27:39;16;9;6
42510;PMS7003;28141;51.120;17.114;2023-05-19T14:30:53;16;8;6
42510;PMS7003;28141;51.120;17.114;2023-05-19T14:34:07;17;9;6
42510;PMS7003;28141;51.120;17.114;2023-05-19T14:37:47;19;11;7
42510;PMS7003;28141;51.120;17.114;2023-05-19T14:41:01;16;9;7
42510;PMS7003;28141;51.120;17.114;2023-05-19T14:44:16;16;9;7
42510;PMS7003;28141;51.120;17.114;2023-05-19T14:47:30;18;10;7
42510;PMS7003;28141;51.120;17.114;2023-05-19T14:51:12;16;10;7
42510;PMS7003;28141;51.120;17.114;2023-05-19T14:54:26;17;11;7
42510;PMS7003;28141;51.120;17.114;2023-05-19T14:57:40;18;10;7
42510;PMS7003;28141;51.120;17.114;2023-05-19T15:00:55;18;11;8
42510;PMS7003;28141;51.120;17.114;2023-05-19T15:04:37;18;11;7
42510;PMS7003;28141;51.120;17.114;2023-05-19T15:07:51;18;11;8
42510;PMS7003;28141;51.120;17.114;2023-05-19T15:11:05;18;10;7
42510;PMS7003;28141;51.120;17.114;2023-05-19T15:14:19;16;10;7
42510;PMS7003;28141;51.120;17.114;2023-05-19T15:18:00;17;9;6
42510;PMS7003;28141;51.120;17.114;2023-05-19T15:21:14;17;9;7
42510;PMS7003;28141;51.120;17.114;2023-05-19T15:24:27;18;10;7
42510;PMS7003;28141;51.120;17.114;2023-05-19T15:27:41;19;12;8
42510;PMS7003;28141;51.120;17.114;2023-05-19T15:31:22;17;10;6
42510;PMS7003;28141;51.120;17.114;2023-05-19T15:34:36;19;11;7
42510;PMS7003;28141;51.120;17.114;2023-05-19T15:37:50;17;10;7
42510;PMS7003;28141;51.120;17.114;2023-05-19T15:41:04;18;11;8
42510;PMS7003;28141;51.120;17.114;2023-05-19T15:44:45;18;11;7
42510;PMS7003;28141;51.120;17.114;2023-05-19T15:47:59;18;11;7
42510;PMS7003;28141;51.120;17.114;2023-05-19T15:51:15;21;12;9
42510;PMS7003;28141;51.120;17.114;2023-05-19T15:54:29;16;10;8
42510;PMS7003;28141;51.120;17.114;2023-05-19T15:58:08;19;11;7
42510;PMS7003;28141;51.120;17.114;2023-05-19T16:01:22;18;10;7
42510;PMS7003;28141;51.120;17.114;2023-05-19T16:04:38;19;11;7
42510;PMS7003;28141;51.120;17.114;2023-05-19T16:07:51;19;11;8
42510;PMS7003;28141;51.120;17.114;2023-05-19T16:11:32;17;10;7
42510;PMS7003;28141;51.120;17.114;2023-05-19T16:14:45;17;9;7
42510;PMS7003;28141;51.120;17.114;2023-05-19T16:17:59;18;11;7
42510;PMS7003;28141;51.120;17.114;2023-05-19T16:21:13;19;12;8
42510;PMS7003;28141;51.120;17.114;2023-05-19T16:24:53;20;12;8
42510;PMS7003;28141;51.120;17.114;2023-05-19T16:28:07;17;10;6
42510;PMS7003;28141;51.120;17.114;2023-05-19T16:31:21;19;10;7
42510;PMS7003;28141;51.120;17.114;2023-05-19T16:34:35;17;11;7
42510;PMS7003;28141;51.120;17.114;2023-05-19T16:37:49;17;10;7
42510;PMS7003;28141;51.120;17.114;2023-05-19T16:41:28;17;11;7
42510;PMS7003;28141;51.120;17.114;2023-05-19T16:44:41;15;8;6
42510;PMS7003;28141;51.120;17.114;2023-05-19T16:47:55;18;11;7
42510;PMS7003;28141;51.120;17.114;2023-05-19T16:51:09;16;10;6
42510;PMS7003;28141;51.120;17.114;2023-05-19T16:54:49;16;9;7
42510;PMS7003;28141;51.120;17.114;2023-05-19T16:58:03;18;10;7
42510;PMS7003;28141;51.120;17.114;2023-05-19T17:01:17;19;11;7
42510;PMS7003;28141;51.120;17.114;2023-05-19T17:04:31;16;9;6
42510;PMS7003;28141;51.120;17.114;2023-05-19T17:08:12;18;9;6
42510;PMS7003;28141;51.120;17.114;2023-05-19T17:11:26;17;10;6
42510;PMS7003;28141;51.120;17.114;2023-05-19T17:14:40;16;9;6
42510;PMS7003;28141;51.120;17.114;2023-05-19T17:17:55;17;9;6
42510;PMS7003;28141;51.120;17.114;2023-05-19T17:21:36;16;10;6
42510;PMS7003;28141;51.120;17.114;2023-05-19T17:24:50;16;9;6
42510;PMS7003;28141;51.120;17.114;2023-05-19T17:28:04;18;8;5
42510;PMS7003;28141;51.120;17.114;2023-05-19T17:31:18;17;10;7
42510;PMS7003;28141;51.120;17.114;2023-05-19T17:34:58;16;9;7
42510;PMS7003;28141;51.120;17.114;2023-05-19T17:38:17;19;10;7
42510;PMS7003;28141;51.120;17.114;2023-05-19T17:41:31;16;8;6
42510;PMS7003;28141;51.120;17.114;2023-05-19T17:44:44;16;9;7
42510;PMS7003;28141;51.120;17.114;2023-05-19T17:48:23;16;9;6
42510;PMS7003;28141;51.120;17.114;2023-05-19T17:51:38;16;9;7
42510;PMS7003;28141;51.120;17.114;2023-05-19T17:54:52;16;9;5
42510;PMS7003;28141;51.120;17.114;2023-05-19T17:58:07;16;9;6
42510;PMS7003;28141;51.120;17.114;2023-05-19T18:01:47;16;9;7
42510;PMS7003;28141;51.120;17.114;2023-05-19T18:05:02;16;9;6
42510;PMS7003;28141;51.120;17.114;2023-05-19T18:08:16;16;8;6
42510;PMS7003;28141;51.120;17.114;2023-05-19T18:11:31;16;9;6
42510;PMS7003;28141;51.120;17.114;2023-05-19T18:15:11;18;9;7
42510;PMS7003;28141;51.120;17.114;2023-05-19T18:18:25;15;7;5
42510;PMS7003;28141;51.120;17.114;2023-05-19T18:21:39;14;7;6
42510;PMS7003;28141;51.120;17.114;2023-05-19T18:24:54;15;7;6
42510;PMS7003;28141;51.120;17.114;2023-05-19T18:28:35;18;10;6
42510;PMS7003;28141;51.120;17.114;2023-05-19T18:31:49;15;8;6
42510;PMS7003;28141;51.120;17.114;2023-05-19T18:35:03;15;7;6
42510;PMS7003;28141;51.120;17.114;2023-05-19T18:38:18;16;9;6
42510;PMS7003;28141;51.120;17.114;2023-05-19T18:42:01;16;9;6
42510;PMS7003;28141;51.120;17.114;2023-05-19T18:45:15;16;9;7
42510;PMS7003;28141;51.120;17.114;2023-05-19T18:48:29;17;10;6
42510;PMS7003;28141;51.120;17.114;2023-05-19T18:51:45;16;9;6
42510;PMS7003;28141;51.120;17.114;2023-05-19T18:55:01;16;9;6
42510;PMS7003;28141;51.120;17.114;2023-05-19T18:58:42;15;8;6
42510;PMS7003;28141;51.120;17.114;2023-05-19T19:01:55;17;9;6
42510;PMS7003;28141;51.120;17.114;2023-05-19T19:05:09;15;8;6
42510;PMS7003;28141;51.120;17.114;2023-05-19T19:08:25;15;8;6
42510;PMS7003;28141;51.120;17.114;2023-05-19T19:12:05;17;10;7
42510;PMS7003;28141;51.120;17.114;2023-05-19T19:15:19;16;8;7
42510;PMS7003;28141;51.120;17.114;2023-05-19T19:18:33;17;10;6
42510;PMS7003;28141;51.120;17.114;2023-05-19T19:21:48;17;10;7
42510;PMS7003;28141;51.120;17.114;2023-05-19T19:25:02;18;9;6
42510;PMS7003;28141;51.120;17.114;2023-05-19T19:28:45;18;10;7
42510;PMS7003;28141;51.120;17.114;2023-05-19T19:31:59;16;9;6
42510;PMS7003;28141;51.120;17.114;2023-05-19T19:35:14;16;9;7
42510;PMS7003;28141;51.120;17.114;2023-05-19T19:38:28;18;8;6
42510;PMS7003;28141;51.120;17.114;2023-05-19T19:42:08;15;8;6
42510;PMS7003;28141;51.120;17.114;2023-05-19T19:45:22;17;10;6
42510;PMS7003;28141;51.120;17.114;2023-05-19T19:48:36;15;8;7
42510;PMS7003;28141;51.120;17.114;2023-05-19T19:51:50;17;10;6
42510;PMS7003;28141;51.120;17.114;2023-05-19T19:55:29;16;7;5
42510;PMS7003;28141;51.120;17.114;2023-05-19T19:58:43;16;9;5
42510;PMS7003;28141;51.120;17.114;2023-05-19T20:01:57;15;8;6
42510;PMS7003;28141;51.120;17.114;2023-05-19T20:05:12;17;9;6
42510;PMS7003;28141;51.120;17.114;2023-05-19T20:08:53;16;9;6
42510;PMS7003;28141;51.120;17.114;2023-05-19T20:12:07;16;8;6
42510;PMS7003;28141;51.120;17.114;2023-05-19T20:15:21;16;10;6
42510;PMS7003;28141;51.120;17.114;2023-05-19T20:18:34;15;8;5
42510;PMS7003;28141;51.120;17.114;2023-05-19T20:22:14;15;8;6
42510;PMS7003;28141;51.120;17.114;2023-05-19T20:25:28;17;9;6
42510;PMS7003;28141;51.120;17.114;2023-05-19T20:28:42;16;9;6
42510;PMS7003;28141;51.120;17.114;2023-05-19T20:31:56;15;8;6
42510;PMS7003;28141;51.120;17.114;2023-05-19T20:35:36;15;7;6
42510;PMS7003;28141;51.120;17.114;2023-05-19T20:38:50;16;9;5
42510;PMS7003;28141;51.120;17.114;2023-05-19T20:42:05;14;7;6
42510;PMS7003;28141;51.120;17.114;2023-05-19T20:45:20;15;9;6
42510;PMS7003;28141;51.120;17.114;2023-05-19T20:49:02;15;8;5
42510;PMS7003;28141;51.120;17.114;2023-05-19T20:52:16;16;9;6
42510;PMS7003;28141;51.120;17.114;2023-05-19T20:55:30;17;9;6
42510;PMS7003;28141;51.120;17.114;2023-05-19T20:58:44;15;8;6
42510;PMS7003;28141;51.120;17.114;2023-05-19T21:02:24;16;9;6
42510;PMS7003;28141;51.120;17.114;2023-05-19T21:05:38;14;8;6
42510;PMS7003;28141;51.120;17.114;2023-05-19T21:08:52;16;9;6
42510;PMS7003;28141;51.120;17.114;2023-05-19T21:12:06;14;8;6
42510;PMS7003;28141;51.120;17.114;2023-05-19T21:15:46;18;10;7
42510;PMS7003;28141;51.120;17.114;2023-05-19T21:19:00;17;9;7
42510;PMS7003;28141;51.120;17.114;2023-05-19T21:22:14;17;9;6
42510;PMS7003;28141;51.120;17.114;2023-05-19T21:25:28;15;9;5
42510;PMS7003;28141;51.120;17.114;2023-05-19T21:29:09;15;7;5
42510;PMS7003;28141;51.120;17.114;2023-05-19T21:32:23;18;8;6
42510;PMS7003;28141;51.120;17.114;2023-05-19T21:35:37;14;8;6
42510;PMS7003;28141;51.120;17.114;2023-05-19T21:38:51;16;9;6
42510;PMS7003;28141;51.120;17.114;2023-05-19T21:42:31;15;8;6
42510;PMS7003;28141;51.120;17.114;2023-05-19T21:45:45;15;8;7
42510;PMS7003;28141;51.120;17.114;2023-05-19T21:48:59;16;8;5
42510;PMS7003;28141;51.120;17.114;2023-05-19T21:52:13;16;9;7
42510;PMS7003;28141;51.120;17.114;2023-05-19T21:55:54;16;9;6
42510;PMS7003;28141;51.120;17.114;2023-05-19T21:59:08;16;9;6
42510;PMS7003;28141;51.120;17.114;2023-05-19T22:02:24;15;8;5
42510;PMS7003;28141;51.120;17.114;2023-05-19T22:05:38;16;7;6
42510;PMS7003;28141;51.120;17.114;2023-05-19T22:09:19;18;8;6
42510;PMS7003;28141;51.120;17.114;2023-05-19T22:12:34;15;9;5
42510;PMS7003;28141;51.120;17.114;2023-05-19T22:15:48;17;8;5
42510;PMS7003;28141;51.120;17.114;2023-05-19T22:19:02;18;11;5
42510;PMS7003;28141;51.120;17.114;2023-05-19T22:22:43;13;7;5
42510;PMS7003;28141;51.120;17.114;2023-05-19T22:25:57;15;8;5
42510;PMS7003;28141;51.120;17.114;2023-05-19T22:29:11;15;8;5
42510;PMS7003;28141;51.120;17.114;2023-05-19T22:32:31;16;9;5
42510;PMS7003;28141;51.120;17.114;2023-05-19T22:36:14;16;9;6
42510;PMS7003;28141;51.120;17.114;2023-05-19T22:39:28;15;6;5
42510;PMS7003;28141;51.120;17.114;2023-05-19T22:42:42;14;8;5